Time;durP1;ratioP1;P1;durP2;ratioP2;P2;SDS_P1;SDS_P2;PMS_P1;PMS_P2;Temp;Humidity;BMP_temperature;BMP_pressure;BME280_temperature;BME280_humidity;BME280_pressure;Samples;Min_cycle;Max_cycle;Signal;HPM_P1;HPM_P2
2022/12/04 00:01:35;;;;;;;22.57;11.87;;;;;;;2.10;100.00;97877.88;4935170;29;20215;-78
2022/12/04 00:04:05;;;;;;;25.50;13.63;;;;;;;2.14;100.00;97873.38;4935221;29;20235;-78
2022/12/04 00:06:32;;;;;;;26.03;13.47;;;;;;;2.12;100.00;97859.53;4935163;29;20216;-78
2022/12/04 00:08:59;;;;;;;25.00;13.13;;;;;;;2.11;100.00;97863.91;4935293;29;20303;-78
2022/12/04 00:11:30;;;;;;;27.07;13.57;;;;;;;2.13;100.00;97867.28;4935143;29;20216;-78
2022/12/04 00:13:57;;;;;;;25.87;12.17;;;;;;;2.10;100.00;97857.00;4933880;29;20236;-78
2022/12/04 00:16:25;;;;;;;23.27;12.60;;;;;;;2.14;100.00;97862.94;4934579;29;20701;-78
2022/12/04 00:18:53;;;;;;;20.93;12.13;;;;;;;2.12;100.00;97870.81;4935149;29;20306;-78
2022/12/04 00:21:21;;;;;;;22.73;13.30;;;;;;;2.13;100.00;97862.09;4935132;29;20243;-78
2022/12/04 00:23:47;;;;;;;20.87;11.47;;;;;;;2.10;100.00;97856.16;4934877;29;20714;-78
2022/12/04 00:26:17;;;;;;;24.43;12.27;;;;;;;2.11;100.00;97861.31;4934558;29;20686;-78
2022/12/04 00:28:46;;;;;;;22.93;12.23;;;;;;;2.14;100.00;97861.16;4935140;29;20227;-78
2022/12/04 00:31:15;;;;;;;23.57;12.57;;;;;;;2.14;100.00;97853.34;4934838;29;20886;-78
2022/12/04 00:33:42;;;;;;;23.47;12.27;;;;;;;2.16;100.00;97855.91;4934817;29;20306;-78
2022/12/04 00:36:11;;;;;;;23.10;12.57;;;;;;;2.27;100.00;97846.72;4934275;29;20684;-78
2022/12/04 00:38:38;;;;;;;23.33;12.27;;;;;;;2.21;100.00;97849.56;4934652;29;20565;-78
2022/12/04 00:41:07;;;;;;;26.40;13.57;;;;;;;2.16;100.00;97851.56;4934590;29;20212;-78
2022/12/04 00:43:34;;;;;;;24.13;13.00;;;;;;;2.19;100.00;97848.81;4934507;29;20315;-78
2022/12/04 00:46:02;;;;;;;21.70;12.20;;;;;;;2.20;100.00;97841.84;4934469;29;20215;-78
2022/12/04 00:48:28;;;;;;;25.57;12.97;;;;;;;2.21;100.00;97846.16;4934222;29;20268;-78
2022/12/04 00:50:57;;;;;;;27.60;13.37;;;;;;;2.18;100.00;97844.50;4934351;29;20208;-78
2022/12/04 00:53:23;;;;;;;21.93;11.57;;;;;;;2.16;100.00;97851.56;4934181;29;20340;-78
2022/12/04 00:55:50;;;;;;;27.77;12.67;;;;;;;2.15;100.00;97849.81;4933940;29;20508;-77
2022/12/04 00:58:16;;;;;;;24.67;12.90;;;;;;;2.20;100.00;97850.50;4934213;29;20212;-77
2022/12/04 01:00:43;;;;;;;25.27;12.57;;;;;;;2.21;100.00;97849.56;4934045;29;20450;-77
2022/12/04 01:03:11;;;;;;;24.53;12.20;;;;;;;2.21;100.00;97833.94;4934225;29;20219;-77
2022/12/04 01:05:42;;;;;;;25.90;12.57;;;;;;;2.26;100.00;97837.22;4934156;29;20234;-77
2022/12/04 01:08:09;;;;;;;24.83;12.53;;;;;;;2.17;100.00;97842.81;4933739;29;20212;-77
2022/12/04 01:10:38;;;;;;;23.87;12.67;;;;;;;2.14;100.00;97842.91;4934385;29;20208;-77
2022/12/04 01:13:04;;;;;;;21.03;11.70;;;;;;;2.14;100.00;97844.69;4933995;29;20223;-77
2022/12/04 01:15:31;;;;;;;24.70;12.73;;;;;;;2.14;100.00;97835.09;4934215;29;20688;-77
2022/12/04 01:17:57;;;;;;;25.07;12.97;;;;;;;2.15;100.00;97836.78;4933824;29;20671;-77
2022/12/04 01:20:25;;;;;;;22.03;11.17;;;;;;;2.18;100.00;97838.44;4933994;29;20607;-77
2022/12/04 01:22:52;;;;;;;24.23;12.17;;;;;;;2.18;100.00;97838.44;4933878;29;20215;-77
2022/12/04 01:25:18;;;;;;;23.77;11.83;;;;;;;2.16;100.00;97824.63;4939167;29;20733;-77
2022/12/04 01:27:45;;;;;;;23.10;12.13;;;;;;;2.19;100.00;97830.56;4940097;29;20714;-77
2022/12/04 01:30:12;;;;;;;22.57;11.80;;;;;;;2.11;100.00;97829.16;4940543;29;20336;-77
2022/12/04 01:32:39;;;;;;;18.47;11.10;;;;;;;2.14;100.00;97829.88;4940492;29;20220;-77
2022/12/04 01:35:06;;;;;;;25.13;11.70;;;;;;;2.10;100.00;97830.09;4940340;29;20235;-77
2022/12/04 01:37:34;;;;;;;24.37;12.53;;;;;;;2.21;100.00;97833.09;4940003;29;20236;-77
2022/12/04 01:40:00;;;;;;;26.13;12.47;;;;;;;2.24;100.00;97836.44;4940305;29;20242;-77
2022/12/04 01:42:27;;;;;;;21.93;11.93;;;;;;;2.20;100.00;97837.47;4940402;29;20215;-77
2022/12/04 01:45:39;;;;;;;21.47;11.13;;;;;;;2.23;100.00;97839.97;4940267;29;20240;-77
2022/12/04 01:48:15;;;;;;;26.50;12.87;;;;;;;2.19;100.00;97830.56;4895085;29;20220;-78
2022/12/04 01:50:43;;;;;;;21.80;10.73;;;;;;;2.19;100.00;97832.31;4940206;29;20701;-77
2022/12/04 01:53:11;;;;;;;22.53;12.10;;;;;;;2.21;100.00;97828.72;4940328;29;20212;-78
2022/12/04 01:55:39;;;;;;;22.83;12.07;;;;;;;2.20;100.00;97832.25;4940107;29;20215;-77
2022/12/04 01:58:07;;;;;;;23.70;11.63;;;;;;;2.22;100.00;97835.66;4939990;29;20211;-77
2022/12/04 02:00:33;;;;;;;24.13;11.83;;;;;;;2.20;100.00;97832.25;4938963;29;20311;-77
2022/12/04 02:03:01;;;;;;;20.83;11.07;;;;;;;2.22;100.00;97835.66;4939000;29;20585;-77
2022/12/04 02:05:28;;;;;;;24.27;11.90;;;;;;;2.23;100.00;97845.16;4939892;29;20275;-77
2022/12/04 02:07:59;;;;;;;23.97;11.40;;;;;;;2.23;100.00;97837.34;4940042;29;20238;-77
2022/12/04 02:10:36;;;;;;;21.20;11.80;;;;;;;2.20;100.00;97850.50;4940099;29;20215;-77
2022/12/04 02:13:08;;;;;;;22.50;11.47;;;;;;;2.27;100.00;97844.13;4940118;29;20202;-77
2022/12/04 02:15:42;;;;;;;24.10;11.07;;;;;;;2.26;100.00;97837.22;4939997;29;20216;-76
2022/12/04 02:18:17;;;;;;;26.77;13.13;;;;;;;2.27;100.00;97838.91;4939785;29;20208;-77
2022/12/04 02:20:52;;;;;;;22.93;11.93;;;;;;;2.26;100.00;97837.22;4939993;29;20610;-77
2022/12/04 02:23:44;;;;;;;22.03;11.67;;;;;;;2.28;100.00;97829.34;4939848;29;20226;-78
2022/12/04 02:26:28;;;;;;;22.73;11.77;;;;;;;2.24;100.00;97831.22;4939576;29;20231;-79
2022/12/04 02:28:59;;;;;;;22.13;10.87;;;;;;;2.22;100.00;97822.63;4939948;29;20220;-79
2022/12/04 02:31:31;;;;;;;23.37;12.73;;;;;;;2.29;100.00;97816.25;4939800;29;20226;-78
2022/12/04 02:34:02;;;;;;;23.93;12.20;;;;;;;2.28;100.00;97819.72;4939736;29;20702;-77
2022/12/04 02:36:31;;;;;;;24.33;12.03;;;;;;;2.28;100.00;97811.91;4936570;29;20219;-77
2022/12/04 02:39:05;;;;;;;27.50;13.07;;;;;;;2.22;100.00;97813.94;4936835;29;20212;-77
2022/12/04 02:41:40;;;;;;;25.00;12.67;;;;;;;2.24;100.00;97822.53;4936708;29;20814;-77
2022/12/04 02:44:12;;;;;;;26.17;13.03;;;;;;;2.22;100.00;97817.41;4936779;29;20235;-77
2022/12/04 02:46:42;;;;;;;25.70;13.17;;;;;;;2.32;100.00;97823.09;4936663;29;20212;-77
2022/12/04 02:49:16;;;;;;;24.97;13.37;;;;;;;2.33;100.00;97816.97;4936674;29;20694;-77
2022/12/04 02:51:44;;;;;;;27.23;14.17;;;;;;;2.32;100.00;97815.28;4936669;29;20212;-77
2022/12/04 02:54:21;;;;;;;22.70;12.83;;;;;;;2.33;100.00;97814.34;4936499;29;20232;-77
2022/12/04 02:56:51;;;;;;;25.37;13.67;;;;;;;2.34;100.00;97809.06;4936198;29;20200;-78
2022/12/04 02:59:24;;;;;;;24.60;12.53;;;;;;;2.31;100.00;97803.97;4936468;29;20219;-77
2022/12/04 03:01:55;;;;;;;25.23;13.60;;;;;;;2.30;100.00;97809.25;4936290;29;20212;-77
2022/12/04 03:04:25;;;;;;;26.10;13.33;;;;;;;2.27;100.00;97810.22;4936206;29;20239;-77
2022/12/04 03:06:56;;;;;;;22.83;13.10;;;;;;;2.28;100.00;97814.50;4936025;29;20212;-77
2022/12/04 03:09:27;;;;;;;24.87;13.77;;;;;;;2.41;100.00;97794.88;4936421;29;20222;-77
2022/12/04 03:11:58;;;;;;;25.57;13.73;;;;;;;2.37;100.00;97803.72;4937330;29;20220;-78
2022/12/04 03:14:31;;;;;;;26.70;14.73;;;;;;;2.37;100.00;97802.88;4941817;29;20231;-77
2022/12/04 03:17:02;;;;;;;25.07;13.30;;;;;;;2.39;100.00;97794.06;4940783;29;20248;-78
2022/12/04 03:19:36;;;;;;;27.07;13.10;;;;;;;2.41;100.00;97794.00;4939991;29;20216;-78
2022/12/04 03:22:09;;;;;;;24.93;14.00;;;;;;;2.49;100.00;97778.88;4939834;29;20593;-78
2022/12/04 03:24:39;;;;;;;30.53;14.67;;;;;;;2.37;100.00;97777.66;4939619;29;20242;-77
2022/12/04 03:27:11;;;;;;;27.23;13.93;;;;;;;2.33;100.00;97786.50;4940717;29;20225;-78
2022/12/04 03:29:43;;;;;;;23.37;13.13;;;;;;;2.38;100.00;97784.56;4939543;29;20208;-78
2022/12/04 03:32:13;;;;;;;26.73;13.80;;;;;;;2.42;100.00;97786.13;4938597;29;20216;-77
2022/12/04 03:34:51;;;;;;;25.67;13.27;;;;;;;2.48;100.00;97791.09;4940061;29;20232;-78
2022/12/04 03:37:23;;;;;;;24.07;12.93;;;;;;;2.47;100.00;97776.34;4940121;29;20239;-78
2022/12/04 03:39:56;;;;;;;25.77;13.77;;;;;;;2.50;100.00;97786.63;4942654;29;20247;-77
2022/12/04 03:42:26;;;;;;;27.10;13.00;;;;;;;2.45;100.00;97780.75;4941764;29;20548;-78
2022/12/04 03:45:01;;;;;;;26.27;14.47;;;;;;;2.48;100.00;97778.03;4940927;29;20235;-77
2022/12/04 03:47:34;;;;;;;26.10;13.47;;;;;;;2.45;100.00;97775.53;4935450;29;20218;-77
2022/12/04 03:50:05;;;;;;;22.73;12.77;;;;;;;2.46;100.00;97765.97;4935325;29;20643;-77
2022/12/04 03:52:39;;;;;;;26.07;13.80;;;;;;;2.43;100.00;97766.94;4935228;29;20216;-77
2022/12/04 03:55:13;;;;;;;28.10;14.30;;;;;;;2.44;100.00;97773.84;4935122;29;20266;-77
2022/12/04 03:57:44;;;;;;;24.97;13.20;;;;;;;2.47;100.00;97776.34;4935005;29;20687;-77
2022/12/04 04:00:15;;;;;;;22.53;12.73;;;;;;;2.55;100.00;97781.22;4935254;29;20239;-77
2022/12/04 04:02:46;;;;;;;25.83;13.93;;;;;;;2.53;100.00;97777.84;4935314;29;20215;-77
2022/12/04 04:05:13;;;;;;;23.60;13.07;;;;;;;2.51;100.00;97777.91;4934771;29;20722;-78
2022/12/04 04:07:43;;;;;;;24.17;13.03;;;;;;;2.54;100.00;97780.38;4934720;29;20693;-77
2022/12/04 04:10:14;;;;;;;25.57;12.90;;;;;;;2.47;100.00;97776.34;4935167;29;20216;-77
2022/12/04 04:12:45;;;;;;;27.40;13.60;;;;;;;2.44;100.00;97792.13;4935068;29;20216;-77
2022/12/04 04:26:25;;;;;;;23.53;14.10;;;;;;;2.49;100.00;97816.25;4934704;29;20325;-77
2022/12/04 04:28:51;;;;;;;28.30;14.00;;;;;;;2.52;100.00;97818.72;4934921;29;20227;-77
2022/12/04 04:31:26;;;;;;;26.90;14.40;;;;;;;2.55;100.00;97813.38;4934660;29;20205;-78
2022/12/04 04:33:59;;;;;;;29.20;15.20;;;;;;;2.62;100.00;97806.97;4934578;29;20239;-77
2022/12/04 04:36:36;;;;;;;24.97;14.50;;;;;;;2.63;100.00;97815.66;4934337;29;20212;-78
2022/12/04 04:39:11;;;;;;;23.87;13.67;;;;;;;2.66;100.00;97810.31;4935002;29;20282;-78
2022/12/04 04:41:43;;;;;;;26.07;14.60;;;;;;;2.64;100.00;97807.75;4934493;29;20231;-77
2022/12/04 04:44:18;;;;;;;29.57;15.00;;;;;;;2.77;100.00;97795.91;4934725;29;20243;-77
2022/12/04 04:46:52;;;;;;;24.47;14.20;;;;;;;2.74;100.00;97793.41;4934186;29;20212;-77
2022/12/04 04:49:23;;;;;;;25.27;14.07;;;;;;;2.67;100.00;97785.91;4934325;29;20211;-77
2022/12/04 04:51:50;;;;;;;24.80;13.57;;;;;;;2.56;100.00;97790.75;4934464;29;20560;-77
2022/12/04 04:54:18;;;;;;;25.63;14.57;;;;;;;2.50;100.00;97791.84;4934143;29;20243;-77
2022/12/04 04:56:46;;;;;;;24.30;14.40;;;;;;;2.54;100.00;97788.22;4933983;29;20337;-77
2022/12/04 04:59:14;;;;;;;27.07;15.87;;;;;;;2.53;100.00;97788.28;4933749;29;20219;-78
2022/12/04 05:01:43;;;;;;;24.33;13.93;;;;;;;2.52;100.00;97792.63;4933894;29;20236;-78
2022/12/04 05:04:11;;;;;;;22.23;13.47;;;;;;;2.50;100.00;97802.28;4952663;23;20744;-79
2022/12/04 05:06:37;;;;;;;26.27;14.03;;;;;;;2.49;100.00;97812.78;4953056;29;20208;-79
2022/12/04 05:09:04;;;;;;;23.50;13.33;;;;;;;2.47;100.00;97814.59;4953928;29;20226;-80
2022/12/04 05:11:31;;;;;;;24.00;13.90;;;;;;;2.49;100.00;97812.78;4953802;29;20529;-80
2022/12/04 05:13:58;;;;;;;27.50;14.37;;;;;;;2.47;100.00;97805.03;4949276;29;20228;-79
2022/12/04 05:16:24;;;;;;;26.07;14.80;;;;;;;2.50;100.00;97810.09;4934759;29;20590;-80
2022/12/04 05:21:36;;;;;;;27.13;14.67;;;;;;;2.55;100.00;97805.56;4934700;29;20380;-80
2022/12/04 05:24:03;;;;;;;26.63;14.80;;;;;;;2.64;100.00;97802.53;4934802;29;20322;-79
2022/12/04 05:26:30;;;;;;;22.50;13.90;;;;;;;2.58;100.00;97808.00;4934495;29;20616;-79
2022/12/04 05:28:56;;;;;;;26.50;15.07;;;;;;;2.65;100.00;97803.41;4934792;29;20230;-79
2022/12/04 05:31:23;;;;;;;28.10;14.73;;;;;;;2.64;100.00;97805.16;4935116;29;20211;-79
2022/12/04 05:33:49;;;;;;;22.40;13.50;;;;;;;2.64;100.00;97802.53;4935027;29;20240;-79
2022/12/04 05:36:15;;;;;;;23.13;12.97;;;;;;;2.65;100.00;97796.44;4934349;29;20578;-79
2022/12/04 05:38:43;;;;;;;25.77;14.53;;;;;;;2.78;100.00;97794.97;4934665;29;20283;-79
2022/12/04 05:41:10;;;;;;;26.70;14.90;;;;;;;2.67;100.00;97797.19;4934843;29;20240;-80
2022/12/04 05:43:36;;;;;;;25.33;14.27;;;;;;;2.61;100.00;97794.00;4934685;29;20207;-79
2022/12/04 05:46:04;;;;;;;24.23;13.23;;;;;;;2.48;100.00;97796.28;4934425;29;20212;-79
2022/12/04 05:48:31;;;;;;;26.00;14.13;;;;;;;2.48;100.00;97796.28;4934623;29;20586;-80
2022/12/04 05:50:58;;;;;;;24.93;13.93;;;;;;;2.44;100.00;97802.53;4934637;29;20231;-79
2022/12/04 05:53:24;;;;;;;24.77;13.83;;;;;;;2.47;100.00;97789.41;4934524;29;20212;-80
2022/12/04 05:55:57;;;;;;;28.13;14.77;;;;;;;2.52;100.00;97786.56;4934185;29;20232;-79
2022/12/04 05:58:24;;;;;;;24.30;14.20;;;;;;;2.51;100.00;97785.72;4934837;29;20228;-79
2022/12/04 06:00:51;;;;;;;24.33;13.70;;;;;;;2.49;100.00;97782.34;4934842;29;20730;-80
2022/12/04 06:03:18;;;;;;;26.50;14.80;;;;;;;2.42;100.00;97791.34;4934825;29;20235;-80
2022/12/04 06:05:44;;;;;;;23.63;12.47;;;;;;;2.45;100.00;97790.38;4934303;29;20240;-80
2022/12/04 06:08:11;;;;;;;25.17;13.67;;;;;;;2.43;100.00;97795.63;4934189;29;20216;-80
2022/12/04 06:10:38;;;;;;;22.53;11.80;;;;;;;2.45;100.00;97801.63;4934777;29;20216;-80
2022/12/04 06:13:06;;;;;;;23.07;13.67;;;;;;;2.54;100.00;97805.59;4938266;29;20208;-79
2022/12/04 06:15:37;;;;;;;26.67;13.40;;;;;;;2.58;100.00;97802.78;4937873;29;20243;-79
2022/12/04 06:18:03;;;;;;;24.00;14.07;;;;;;;2.59;100.00;97794.09;4937695;29;20215;-79
2022/12/04 06:20:30;;;;;;;22.57;13.00;;;;;;;2.55;100.00;97797.72;4937584;29;20232;-80
2022/12/04 06:22:56;;;;;;;25.27;14.00;;;;;;;2.59;100.00;97794.09;4937897;29;20220;-80
2022/12/04 06:25:23;;;;;;;22.80;12.77;;;;;;;2.62;100.00;97793.06;4938089;29;20239;-80
2022/12/04 06:27:49;;;;;;;21.43;13.00;;;;;;;2.65;100.00;97793.81;4937712;29;20676;-80
2022/12/04 06:30:17;;;;;;;25.13;13.30;;;;;;;2.64;100.00;97793.88;4937830;29;20214;-80
2022/12/04 06:32:44;;;;;;;25.10;13.23;;;;;;;2.60;100.00;97790.56;4937768;29;20212;-80
2022/12/04 06:35:10;;;;;;;24.20;13.20;;;;;;;2.64;100.00;97805.16;4937383;29;20232;-79
2022/12/04 06:37:37;;;;;;;22.70;13.90;;;;;;;2.65;100.00;97792.97;4937458;29;20207;-79
2022/12/04 06:40:04;;;;;;;24.20;13.20;;;;;;;2.58;100.00;97792.38;4937546;29;20588;-80
2022/12/04 06:42:31;;;;;;;22.33;12.97;;;;;;;2.61;100.00;97792.25;4937683;29;20238;-79
2022/12/04 06:44:57;;;;;;;23.03;13.57;;;;;;;2.59;100.00;97796.69;4937329;29;20257;-80
2022/12/04 06:47:25;;;;;;;25.50;14.30;;;;;;;2.59;100.00;97794.09;4937908;29;20218;-80
2022/12/04 06:49:52;;;;;;;23.70;12.60;;;;;;;2.62;100.00;97799.16;4937243;29;20214;-80
2022/12/04 06:52:18;;;;;;;23.90;13.40;;;;;;;2.57;100.00;97801.09;4937651;29;20215;-79
2022/12/04 06:54:45;;;;;;;23.30;13.33;;;;;;;2.67;100.00;97801.56;4937217;29;20703;-79
2022/12/04 06:57:11;;;;;;;23.37;13.33;;;;;;;2.65;100.00;97804.25;4937249;29;20215;-79
2022/12/04 06:59:38;;;;;;;21.17;11.80;;;;;;;2.64;100.00;97801.72;4937060;29;20223;-79
2022/12/04 07:02:04;;;;;;;23.30;12.40;;;;;;;2.64;100.00;97801.72;4937059;29;20583;-80
2022/12/04 07:04:32;;;;;;;23.90;13.67;;;;;;;2.67;100.00;97812.00;4936763;29;20240;-80
2022/12/04 07:06:59;;;;;;;21.73;12.47;;;;;;;2.64;100.00;97804.31;4936419;29;20234;-80
2022/12/04 07:09:25;;;;;;;23.10;13.40;;;;;;;2.59;100.00;97801.91;4936670;29;20212;-79
2022/12/04 07:11:53;;;;;;;22.73;13.13;;;;;;;2.60;100.00;97811.44;4936641;29;20231;-79
2022/12/04 07:14:20;;;;;;;22.70;13.17;;;;;;;2.63;100.00;97806.06;4936211;29;20236;-79
2022/12/04 07:16:46;;;;;;;23.43;13.27;;;;;;;2.68;100.00;97811.06;4936361;29;20314;-79
2022/12/04 07:19:13;;;;;;;23.73;13.00;;;;;;;2.67;100.00;97812.00;4936063;29;20582;-79
2022/12/04 07:21:42;;;;;;;23.60;14.00;;;;;;;2.65;100.00;97804.25;4936025;29;20232;-79
2022/12/04 07:24:13;;;;;;;24.00;13.87;;;;;;;2.61;100.00;97815.72;4936501;29;20240;-79
2022/12/04 07:26:40;;;;;;;23.80;13.43;;;;;;;2.60;100.00;97814.03;4936250;29;20324;-79
2022/12/04 07:29:06;;;;;;;25.20;13.50;;;;;;;2.62;100.00;97813.94;4936563;29;20216;-79
2022/12/04 07:31:33;;;;;;;25.67;14.10;;;;;;;2.59;100.00;97807.13;4936436;29;20585;-79
2022/12/04 07:33:59;;;;;;;23.20;13.20;;;;;;;2.70;100.00;97806.66;4936654;29;20236;-80
2022/12/04 07:36:26;;;;;;;26.43;14.77;;;;;;;2.70;100.00;97806.66;4936256;29;20217;-79
2022/12/04 07:38:55;;;;;;;24.17;13.73;;;;;;;2.70;100.00;97799.66;4936169;29;20208;-79
2022/12/04 07:41:22;;;;;;;27.93;14.23;;;;;;;2.71;100.00;97805.75;4935986;29;20292;-80
2022/12/04 07:43:48;;;;;;;23.10;12.27;;;;;;;2.67;100.00;97802.41;4935783;29;20252;-79
2022/12/04 07:46:17;;;;;;;25.23;14.80;;;;;;;2.63;100.00;97802.63;4935288;29;20694;-80
2022/12/04 07:48:44;;;;;;;24.70;13.97;;;;;;;2.62;100.00;97804.38;4936079;29;20626;-81
2022/12/04 07:51:12;;;;;;;26.33;14.00;;;;;;;2.59;100.00;97806.25;4935814;29;20223;-81
2022/12/04 07:53:40;;;;;;;22.37;13.33;;;;;;;2.60;100.00;97803.59;4936049;29;20221;-80
2022/12/04 07:56:09;;;;;;;24.27;13.73;;;;;;;2.60;100.00;97811.44;4935383;29;20208;-82
2022/12/04 07:58:36;;;;;;;24.23;13.37;;;;;;;2.63;100.00;97816.50;4935689;29;20208;-82
2022/12/04 08:01:08;;;;;;;25.50;13.33;;;;;;;2.64;100.00;97828.63;4935757;29;20236;-78
2022/12/04 08:03:35;;;;;;;25.90;13.93;;;;;;;2.74;100.00;97824.72;4935613;29;20216;-79
2022/12/04 08:06:02;;;;;;;23.23;13.30;;;;;;;2.70;100.00;97819.69;4935529;29;20214;-82
2022/12/04 08:08:29;;;;;;;25.77;12.93;;;;;;;2.68;100.00;97819.75;4935511;29;20216;-82
2022/12/04 08:10:55;;;;;;;24.57;13.03;;;;;;;2.73;100.00;97814.34;4935467;29;20282;-82
2022/12/04 08:13:23;;;;;;;23.00;12.23;;;;;;;2.66;100.00;97807.69;4935589;29;20667;-81
2022/12/04 08:15:50;;;;;;;24.47;13.10;;;;;;;2.67;100.00;97810.25;4935007;29;20629;-82
2022/12/04 08:18:17;;;;;;;23.40;13.70;;;;;;;2.71;100.00;97809.22;4935332;29;20226;-82
2022/12/04 08:20:44;;;;;;;19.17;11.10;;;;;;;2.66;100.00;97811.16;4935486;29;20219;-81
2022/12/04 08:23:11;;;;;;;22.23;12.57;;;;;;;2.65;100.00;97809.47;4935681;29;20688;-81
2022/12/04 08:25:39;;;;;;;21.70;12.57;;;;;;;2.74;100.00;97811.66;4934801;29;20232;-81
2022/12/04 08:28:05;;;;;;;21.37;13.07;;;;;;;2.80;100.00;97818.38;4935217;29;20215;-80
2022/12/04 08:30:34;;;;;;;21.83;13.07;;;;;;;2.75;100.00;97815.97;4935145;29;20208;-81
2022/12/04 08:33:01;;;;;;;25.10;14.10;;;;;;;2.80;100.00;97816.63;4934910;29;20208;-80
2022/12/04 08:35:28;;;;;;;23.63;14.23;;;;;;;2.79;100.00;97814.94;4934524;29;20263;-80
2022/12/04 08:37:55;;;;;;;25.07;13.33;;;;;;;2.84;100.00;97810.38;4934980;29;20228;-80
2022/12/04 08:40:22;;;;;;;22.67;12.77;;;;;;;2.82;100.00;97813.97;4934890;29;20216;-81
2022/12/04 08:42:48;;;;;;;21.37;12.90;;;;;;;2.89;100.00;97818.81;4934951;29;20235;-81
2022/12/04 08:45:15;;;;;;;20.83;11.37;;;;;;;2.85;100.00;97821.63;4934820;29;20247;-80
2022/12/04 08:47:43;;;;;;;23.63;13.20;;;;;;;2.83;100.00;97816.50;4934782;29;20679;-80
2022/12/04 08:50:10;;;;;;;23.30;11.80;;;;;;;2.77;100.00;97827.22;4934481;29;20215;-80
2022/12/04 08:52:36;;;;;;;18.27;10.73;;;;;;;2.76;100.00;97833.31;4933810;29;20208;-80
2022/12/04 08:55:03;;;;;;;23.03;12.23;;;;;;;2.78;100.00;97831.50;4933345;29;20353;-80
2022/12/04 08:57:29;;;;;;;19.80;11.10;;;;;;;2.81;100.00;97833.97;4934514;29;20224;-80
2022/12/04 08:59:56;;;;;;;21.57;12.67;;;;;;;2.81;100.00;97841.78;4933230;29;20702;-80
2022/12/04 09:02:22;;;;;;;21.10;11.70;;;;;;;2.79;100.00;97848.84;4934120;29;20232;-80
2022/12/04 09:04:50;;;;;;;21.07;11.93;;;;;;;2.77;100.00;97849.84;4934316;29;20250;-80
2022/12/04 09:07:17;;;;;;;20.13;11.10;;;;;;;2.83;100.00;97847.81;4931173;29;21124;-80
2022/12/04 09:09:43;;;;;;;23.37;13.23;;;;;;;2.86;100.00;97855.50;4934371;29;20556;-80
2022/12/04 09:12:10;;;;;;;22.97;13.07;;;;;;;2.91;100.00;97866.59;4934069;29;20212;-80
2022/12/04 09:14:38;;;;;;;21.07;11.83;;;;;;;2.92;100.00;97864.81;4932103;29;20726;-80
2022/12/04 09:17:04;;;;;;;23.53;12.73;;;;;;;2.94;100.00;97857.78;4934392;29;20212;-80
2022/12/04 09:19:31;;;;;;;24.80;13.03;;;;;;;2.94;100.00;97863.84;4934215;29;20214;-80
2022/12/04 09:21:59;;;;;;;22.20;12.10;;;;;;;2.98;100.00;97859.34;4932623;29;20355;-80
2022/12/04 09:24:25;;;;;;;24.50;11.57;;;;;;;2.98;100.00;97854.97;4934538;29;20236;-80
2022/12/04 09:26:52;;;;;;;23.33;12.47;;;;;;;2.99;100.00;97851.44;4933619;29;20216;-80
2022/12/04 09:29:18;;;;;;;20.97;11.97;;;;;;;3.06;100.00;97854.66;4932898;29;20212;-80
2022/12/04 09:31:45;;;;;;;22.27;12.60;;;;;;;3.01;100.00;97854.81;4934324;29;20219;-80
2022/12/04 09:34:11;;;;;;;21.23;12.37;;;;;;;3.03;100.00;97842.56;4933550;29;20228;-80
2022/12/04 09:36:38;;;;;;;20.80;12.00;;;;;;;3.02;100.00;97833.06;4933387;29;20620;-80
2022/12/04 09:39:05;;;;;;;23.07;12.03;;;;;;;3.05;100.00;97829.47;4934557;29;20208;-80
2022/12/04 09:41:59;;;;;;;19.97;10.50;;;;;;;2.98;100.00;97823.66;4932326;29;20232;-80
2022/12/04 09:44:29;;;;;;;21.97;12.53;;;;;;;3.02;100.00;97814.78;4934339;29;20722;-80
2022/12/04 09:47:00;;;;;;;19.40;11.73;;;;;;;3.01;100.00;97812.22;4937739;29;20541;-81
2022/12/04 09:49:34;;;;;;;23.20;11.93;;;;;;;2.97;100.00;97808.91;4936454;29;20219;-80
2022/12/04 09:52:07;;;;;;;20.63;11.80;;;;;;;2.98;100.00;97801.91;4937963;29;20216;-80
2022/12/04 09:54:40;;;;;;;21.03;11.97;;;;;;;3.05;100.00;97785.91;4937176;29;20235;-80
2022/12/04 09:57:15;;;;;;;22.87;11.50;;;;;;;3.06;100.00;97784.16;4936697;29;20211;-80
2022/12/04 09:59:44;;;;;;;24.07;12.63;;;;;;;3.06;100.00;97764.09;4937832;29;20222;-83
2022/12/04 10:02:35;;;;;;;21.40;11.27;;;;;;;3.02;100.00;97757.34;4936058;29;20243;-83
2022/12/04 10:05:02;;;;;;;19.30;11.23;;;;;;;3.05;100.00;97756.38;4937848;29;20294;-83
2022/12/04 10:07:34;;;;;;;18.20;10.43;;;;;;;2.98;100.00;97760.16;4937736;29;20223;-82
2022/12/04 10:10:07;;;;;;;21.73;11.37;;;;;;;2.99;100.00;97762.69;4936544;29;20590;-82
2022/12/04 10:12:46;;;;;;;20.27;11.53;;;;;;;3.00;100.00;97764.38;4937953;29;20208;-83
2022/12/04 10:15:25;;;;;;;18.07;10.17;;;;;;;2.94;100.00;97756.81;4937245;29;20239;-82
2022/12/04 10:18:12;;;;;;;19.63;11.07;;;;;;;2.97;100.00;97758.44;4936744;29;20220;-82
2022/12/04 10:20:52;;;;;;;19.07;10.53;;;;;;;3.06;100.00;97750.22;4937752;29;20581;-82
2022/12/04 10:23:34;;;;;;;17.23;10.17;;;;;;;3.01;100.00;97739.97;4935158;29;20492;-82
2022/12/04 10:26:05;;;;;;;18.83;9.83;;;;;;;3.04;100.00;97734.63;4937376;29;20214;-82
2022/12/04 10:28:36;;;;;;;18.23;10.20;;;;;;;3.01;100.00;97737.34;4937156;29;20207;-82
2022/12/04 10:31:05;;;;;;;17.60;10.33;;;;;;;2.98;100.00;97737.50;4935775;29;20307;-83
2022/12/04 10:33:37;;;;;;;20.93;10.63;;;;;;;2.99;100.00;97736.59;4937925;29;20434;-82
2022/12/04 10:36:05;;;;;;;19.13;10.40;;;;;;;2.95;100.00;97740.25;4936353;29;20223;-81
2022/12/04 10:38:39;;;;;;;21.60;10.90;;;;;;;2.91;100.00;97738.72;4936393;29;20213;-81
2022/12/04 10:41:17;;;;;;;17.00;9.43;;;;;;;2.88;100.00;97749.28;4936556;29;20589;-80
2022/12/04 10:43:46;;;;;;;18.53;10.43;;;;;;;2.92;100.00;97755.19;4937423;29;20236;-80
2022/12/04 10:46:15;;;;;;;21.48;12.18;;;;;;;2.95;100.00;97773.34;4947526;29;20429;-80
2022/12/04 10:48:44;;;;;;;24.63;11.53;;;;;;;2.92;100.00;97776.06;4947580;29;20219;-80
2022/12/04 10:51:15;;;;;;;20.10;10.63;;;;;;;3.01;100.00;97781.72;4944811;29;20214;-82
2022/12/04 10:53:42;;;;;;;20.67;11.07;;;;;;;3.08;100.00;97779.69;4948257;29;20212;-82
2022/12/04 10:56:16;;;;;;;19.87;10.53;;;;;;;3.05;100.00;97767.63;4948399;29;20212;-81
2022/12/04 10:58:43;;;;;;;20.47;11.13;;;;;;;3.01;100.00;97766.06;4947611;29;20212;-79
2022/12/04 11:01:14;;;;;;;16.73;9.83;;;;;;;3.04;100.00;97776.38;4947969;29;20220;-80
2022/12/04 11:03:44;;;;;;;20.50;11.03;;;;;;;3.07;100.00;97771.00;4949335;29;20283;-79
2022/12/04 11:06:10;;;;;;;18.93;10.33;;;;;;;3.05;100.00;97767.63;4967510;23;20467;-82
2022/12/04 11:08:40;;;;;;;20.00;10.57;;;;;;;3.09;100.00;97761.38;4955564;28;20219;-85
2022/12/04 11:11:10;;;;;;;18.37;10.67;;;;;;;3.07;100.00;97759.75;4955756;28;20218;-82
2022/12/04 11:13:39;;;;;;;18.70;10.63;;;;;;;3.07;100.00;97755.34;4955367;28;20300;-83
2022/12/04 11:16:07;;;;;;;17.97;9.43;;;;;;;3.03;100.00;97751.22;4937386;28;20239;-82
2022/12/04 11:18:45;;;;;;;16.73;9.73;;;;;;;3.04;100.00;97760.72;4936112;29;20354;-83
2022/12/04 11:21:16;;;;;;;17.13;8.80;;;;;;;3.02;100.00;97754.75;4936373;29;20215;-82
2022/12/04 11:23:46;;;;;;;16.73;9.90;;;;;;;3.05;100.00;97757.19;4936023;29;20238;-82
2022/12/04 11:26:14;;;;;;;17.43;9.83;;;;;;;3.06;100.00;97755.44;4935840;29;20237;-83
2022/12/04 11:28:47;;;;;;;16.30;9.30;;;;;;;3.09;100.00;97752.69;4936371;29;20587;-80
2022/12/04 11:31:19;;;;;;;16.57;9.20;;;;;;;3.06;100.00;97745.84;4936124;29;20209;-80
2022/12/04 11:33:49;;;;;;;19.10;10.43;;;;;;;3.04;100.00;97747.69;4936329;29;20212;-84
2022/12/04 11:36:22;;;;;;;17.77;10.17;;;;;;;3.07;100.00;97739.69;4936048;28;20236;-83
2022/12/04 11:38:50;;;;;;;17.10;9.77;;;;;;;3.03;100.00;97732.94;4936176;29;20212;-84
2022/12/04 11:41:25;;;;;;;20.37;11.00;;;;;;;3.00;100.00;97732.22;4935866;29;20208;-82